createdAt,value
2018-09-02T00:00:01.193Z,102633.34
2018-09-02T00:00:12.975Z,102632.97
2018-09-02T00:00:30.174Z,102633.72
2018-09-02T00:00:41.992Z,102631.66
2018-09-02T00:00:53.789Z,102627.94
2018-09-02T00:01:05.585Z,102634.66
2018-09-02T00:01:17.361Z,102633.72
2018-09-02T00:01:29.148Z,102628.88
2018-09-02T00:01:41.011Z,102632.59
2018-09-02T00:01:52.793Z,102627.19
2018-09-02T00:02:04.626Z,102632.04
2018-09-02T00:02:16.414Z,102633.72
2018-09-02T00:02:28.226Z,102629.80
2018-09-02T00:02:39.986Z,102635.03
2018-09-02T00:02:51.756Z,102632.41
2018-09-02T00:03:04.532Z,102632.04
2018-09-02T00:03:16.314Z,102634.28
2018-09-02T00:03:28.105Z,102627.19
2018-09-02T00:03:39.901Z,102629.80
2018-09-02T00:03:51.687Z,102632.41
2018-09-02T00:04:03.474Z,102634.66
2018-09-02T00:04:15.268Z,102627.19
2018-09-02T00:04:27.076Z,102633.72
2018-09-02T00:04:38.846Z,102626.63
2018-09-02T00:04:50.621Z,102632.79
2018-09-02T00:05:02.407Z,102632.04
2018-09-02T00:05:14.175Z,102627.94
2018-09-02T00:05:25.956Z,102631.11
2018-09-02T00:05:37.820Z,102633.91
2018-09-02T00:05:49.574Z,102633.72
2018-09-02T00:06:01.338Z,102635.58
2018-09-02T00:06:13.135Z,102628.49
2018-09-02T00:06:25.160Z,102631.66
2018-09-02T00:06:36.910Z,102630.73
2018-09-02T00:06:48.711Z,102632.97
2018-09-02T00:07:00.468Z,102638.20
2018-09-02T00:07:12.694Z,102634.66
2018-09-02T00:07:24.447Z,102632.41
2018-09-02T00:07:36.218Z,102629.80
2018-09-02T00:07:48.009Z,102633.34
2018-09-02T00:08:00.379Z,102635.03
2018-09-02T00:08:12.167Z,102635.96
2018-09-02T00:08:23.935Z,102628.88
2018-09-02T00:08:35.699Z,102632.04
2018-09-02T00:08:47.493Z,102633.34
2018-09-02T00:08:59.275Z,102631.48
2018-09-02T00:09:11.097Z,102633.72
2018-09-02T00:09:23.111Z,102632.97
2018-09-02T00:09:34.993Z,102635.41
2018-09-02T00:09:46.771Z,102638.95
2018-09-02T00:09:58.596Z,102635.03
2018-09-02T00:10:10.413Z,102633.17
2018-09-02T00:10:22.186Z,102633.72
2018-09-02T00:10:33.956Z,102633.17
2018-09-02T00:10:45.756Z,102632.79
2018-09-02T00:10:57.516Z,102635.03
2018-09-02T00:11:09.297Z,102632.79
2018-09-02T00:11:21.072Z,102634.48
2018-09-02T00:11:32.893Z,102631.86
2018-09-02T00:11:44.646Z,102633.17
2018-09-02T00:11:56.402Z,102634.09
2018-09-02T00:12:08.210Z,102632.79
2018-09-02T00:12:19.994Z,102629.25
2018-09-02T00:12:31.808Z,102630.55
2018-09-02T00:12:43.606Z,102634.09
2018-09-02T00:12:55.364Z,102638.02
2018-09-02T00:13:07.139Z,102638.77
2018-09-02T00:13:18.960Z,102630.55
2018-09-02T00:13:30.747Z,102635.41
2018-09-02T00:13:42.515Z,102635.03
2018-09-02T00:13:54.341Z,102637.27
2018-09-02T00:14:06.100Z,102639.88
2018-09-02T00:14:17.871Z,102635.03
2018-09-02T00:14:29.818Z,102631.48
2018-09-02T00:14:41.588Z,102638.02
2018-09-02T00:14:53.376Z,102627.56
2018-09-02T00:15:05.192Z,102632.79
2018-09-02T00:15:16.970Z,102630.17
2018-09-02T00:15:28.758Z,102639.33
2018-09-02T00:15:40.541Z,102638.02
2018-09-02T00:15:52.312Z,102635.22
2018-09-02T00:16:04.097Z,102634.84
2018-09-02T00:16:15.911Z,102629.25
2018-09-02T00:16:27.706Z,102635.78
2018-09-02T00:16:39.508Z,102635.41
2018-09-02T00:16:51.287Z,102641.56
2018-09-02T00:17:03.056Z,102635.78
2018-09-02T00:17:14.850Z,102638.02
2018-09-02T00:17:26.673Z,102634.09
2018-09-02T00:17:38.464Z,102638.39
2018-09-02T00:17:50.502Z,102633.17
2018-09-02T00:18:02.282Z,102631.86
2018-09-02T00:18:14.102Z,102639.88
2018-09-02T00:18:25.888Z,102633.34
2018-09-02T00:18:37.635Z,102634.09
2018-09-02T00:18:49.397Z,102636.71
2018-09-02T00:19:01.155Z,102634.09
2018-09-02T00:19:12.991Z,102637.09
2018-09-02T00:19:24.743Z,102634.48
2018-09-02T00:19:36.558Z,102633.17
2018-09-02T00:19:48.329Z,102634.48
2018-09-02T00:20:00.090Z,102638.02
2018-09-02T00:20:11.852Z,102634.48
2018-09-02T00:20:23.655Z,102633.17
2018-09-02T00:20:35.482Z,102636.71
2018-09-02T00:20:47.232Z,102636.71
2018-09-02T00:20:59.018Z,102639.70
2018-09-02T00:21:10.780Z,102638.02
2018-09-02T00:21:22.734Z,102638.02
2018-09-02T00:21:34.507Z,102633.72
2018-09-02T00:21:46.275Z,102639.33
2018-09-02T00:21:58.289Z,102629.25
2018-09-02T00:22:10.064Z,102633.72
2018-09-02T00:22:21.896Z,102632.61
2018-09-02T00:22:33.697Z,102638.39
2018-09-02T00:22:45.496Z,102634.09
2018-09-02T00:22:57.265Z,102634.48
2018-09-02T00:23:09.017Z,102633.17
2018-09-02T00:23:20.786Z,102634.84
2018-09-02T00:23:32.539Z,102634.48
2018-09-02T00:23:44.388Z,102637.46
2018-09-02T00:23:56.179Z,102631.68
2018-09-02T00:24:07.953Z,102632.23
2018-09-02T00:24:20.053Z,102638.39
2018-09-02T00:24:31.812Z,102637.09
2018-09-02T00:24:43.608Z,102635.41
2018-09-02T00:24:55.384Z,102634.09
2018-09-02T00:25:07.190Z,102632.23
2018-09-02T00:25:19.226Z,102637.46
2018-09-02T00:25:31.022Z,102636.71
2018-09-02T00:25:42.889Z,102638.39
2018-09-02T00:25:54.725Z,102636.34
2018-09-02T00:26:06.517Z,102635.03
2018-09-02T00:26:18.279Z,102635.41
2018-09-02T00:26:30.149Z,102638.95
2018-09-02T00:26:41.942Z,102637.09
2018-09-02T00:26:53.741Z,102634.48
2018-09-02T00:27:05.541Z,102634.48
2018-09-02T00:27:17.338Z,102638.02
2018-09-02T00:27:29.276Z,102639.70
2018-09-02T00:27:41.082Z,102631.86
2018-09-02T00:27:52.879Z,102635.78
2018-09-02T00:28:04.655Z,102638.77
2018-09-02T00:28:16.403Z,102637.46
2018-09-02T00:28:28.225Z,102637.46
2018-09-02T00:28:39.961Z,102640.08
2018-09-02T00:28:51.719Z,102638.39
2018-09-02T00:29:03.495Z,102644.00
2018-09-02T00:29:15.267Z,102642.31
2018-09-02T00:29:27.037Z,102641.76
2018-09-02T00:29:38.822Z,102637.84
2018-09-02T00:29:50.595Z,102640.45
2018-09-02T00:30:02.371Z,102644.00
2018-09-02T00:30:14.157Z,102642.31
2018-09-02T00:30:26.010Z,102643.25
2018-09-02T00:30:37.744Z,102642.31
2018-09-02T00:30:49.490Z,102644.93
2018-09-02T00:31:01.295Z,102643.63
2018-09-02T00:31:13.094Z,102642.52
2018-09-02T00:31:24.870Z,102640.45
2018-09-02T00:31:36.638Z,102646.61
2018-09-02T00:31:48.411Z,102638.22
2018-09-02T00:32:00.177Z,102643.45
2018-09-02T00:32:11.998Z,102644.93
2018-09-02T00:32:23.781Z,102645.31
2018-09-02T00:32:35.804Z,102644.93
2018-09-02T00:32:47.584Z,102643.25
2018-09-02T00:32:59.398Z,102647.92
2018-09-02T00:33:11.167Z,102650.16
2018-09-02T00:33:23.028Z,102642.14
2018-09-02T00:33:34.744Z,102643.06
2018-09-02T00:33:46.622Z,102649.23
2018-09-02T00:33:58.521Z,102644.93
2018-09-02T00:34:10.201Z,102645.31
2018-09-02T00:34:22.003Z,102645.31
2018-09-02T00:34:33.772Z,102644.38
2018-09-02T00:34:45.534Z,102644.75
2018-09-02T00:34:57.324Z,102650.16
2018-09-02T00:35:09.137Z,102649.23
2018-09-02T00:35:20.914Z,102649.23
2018-09-02T00:35:32.870Z,102650.91
2018-09-02T00:35:44.612Z,102643.06
2018-09-02T00:35:56.372Z,102645.69
2018-09-02T00:36:08.139Z,102651.09
2018-09-02T00:36:19.882Z,102650.91
2018-09-02T00:36:31.695Z,102649.23
2018-09-02T00:36:43.477Z,102646.06
2018-09-02T00:36:55.280Z,102642.14
2018-09-02T00:37:07.051Z,102654.08
2018-09-02T00:37:18.807Z,102653.52
2018-09-02T00:37:30.676Z,102651.84
2018-09-02T00:37:42.471Z,102646.23
2018-09-02T00:37:54.234Z,102652.22
2018-09-02T00:38:06.011Z,102648.67
2018-09-02T00:38:17.779Z,102651.84
2018-09-02T00:38:29.560Z,102651.84
2018-09-02T00:38:41.341Z,102652.22
2018-09-02T00:38:53.214Z,102655.77
2018-09-02T00:39:05.160Z,102653.52
2018-09-02T00:39:16.930Z,102657.45
2018-09-02T00:39:28.727Z,102651.28
2018-09-02T00:39:40.488Z,102651.66
2018-09-02T00:39:52.254Z,102656.69
2018-09-02T00:40:04.053Z,102651.47
2018-09-02T00:40:15.826Z,102653.15
2018-09-02T00:40:27.623Z,102653.90
2018-09-02T00:40:39.398Z,102654.83
2018-09-02T00:40:51.156Z,102653.90
2018-09-02T00:41:02.914Z,102646.06
2018-09-02T00:41:14.658Z,102655.20
2018-09-02T00:41:26.421Z,102646.44
2018-09-02T00:41:39.123Z,102657.82
2018-09-02T00:41:50.876Z,102653.90
2018-09-02T00:42:02.663Z,102645.50
2018-09-02T00:42:14.437Z,102656.52
2018-09-02T00:42:26.235Z,102651.28
2018-09-02T00:42:37.995Z,102653.90
2018-09-02T00:42:49.767Z,102659.12
2018-09-02T00:43:01.535Z,102658.57
2018-09-02T00:43:13.317Z,102655.58
2018-09-02T00:43:25.138Z,102654.27
2018-09-02T00:43:37.055Z,102655.20
2018-09-02T00:43:48.865Z,102654.27
2018-09-02T00:44:00.642Z,102652.97
2018-09-02T00:44:12.430Z,102655.20
2018-09-02T00:44:24.196Z,102650.36
2018-09-02T00:44:35.970Z,102650.17
2018-09-02T00:44:47.751Z,102651.11
2018-09-02T00:44:59.524Z,102648.49
2018-09-02T00:45:11.300Z,102647.56
2018-09-02T00:45:23.081Z,102651.11
2018-09-02T00:45:34.856Z,102650.92
2018-09-02T00:45:46.626Z,102649.80
2018-09-02T00:45:58.429Z,102646.25
2018-09-02T00:46:10.188Z,102654.09
2018-09-02T00:46:21.957Z,102654.09
2018-09-02T00:46:33.771Z,102655.41
2018-09-02T00:46:45.510Z,102642.33
2018-09-02T00:46:57.319Z,102652.03
2018-09-02T00:47:09.122Z,102652.79
2018-09-02T00:47:20.914Z,102655.78
2018-09-02T00:47:32.698Z,102645.88
2018-09-02T00:47:44.451Z,102649.80
2018-09-02T00:47:56.328Z,102644.95
2018-09-02T00:48:08.150Z,102647.19
2018-09-02T00:48:19.942Z,102648.87
2018-09-02T00:48:31.783Z,102648.87
2018-09-02T00:48:43.578Z,102651.11
2018-09-02T00:48:55.382Z,102649.24
2018-09-02T00:49:07.144Z,102645.70
2018-09-02T00:49:19.000Z,102648.87
2018-09-02T00:49:30.773Z,102644.02
2018-09-02T00:49:42.556Z,102646.63
2018-09-02T00:49:54.345Z,102645.33
2018-09-02T00:50:06.137Z,102652.79
2018-09-02T00:50:17.928Z,102655.41
2018-09-02T00:50:29.697Z,102650.73
2018-09-02T00:50:41.480Z,102646.25
2018-09-02T00:50:53.264Z,102656.33
2018-09-02T00:51:05.022Z,102650.17
2018-09-02T00:51:16.787Z,102656.33
2018-09-02T00:51:28.575Z,102652.79
2018-09-02T00:51:40.356Z,102647.94
2018-09-02T00:51:52.186Z,102654.47
2018-09-02T00:52:03.950Z,102648.31
2018-09-02T00:52:15.862Z,102652.79
2018-09-02T00:52:27.629Z,102652.79
2018-09-02T00:52:39.436Z,102652.79
2018-09-02T00:52:51.191Z,102654.09
2018-09-02T00:53:02.997Z,102650.17
2018-09-02T00:53:14.744Z,102649.24
2018-09-02T00:53:26.543Z,102654.09
2018-09-02T00:53:38.481Z,102648.87
2018-09-02T00:53:50.277Z,102650.55
2018-09-02T00:54:02.053Z,102648.87
2018-09-02T00:54:13.829Z,102652.79
2018-09-02T00:54:25.594Z,102655.41
2018-09-02T00:54:37.345Z,102649.24
2018-09-02T00:54:49.260Z,102648.87
2018-09-02T00:55:01.166Z,102650.17
2018-09-02T00:55:12.964Z,102651.86
2018-09-02T00:55:24.740Z,102650.55
2018-09-02T00:55:36.508Z,102649.24
2018-09-02T00:55:48.284Z,102650.55
2018-09-02T00:56:00.063Z,102656.33
2018-09-02T00:56:11.881Z,102650.92
2018-09-02T00:56:23.869Z,102650.17
2018-09-02T00:56:35.671Z,102652.79
2018-09-02T00:56:47.482Z,102654.09
2018-09-02T00:56:59.227Z,102649.62
2018-09-02T00:57:10.988Z,102652.23
2018-09-02T00:57:22.802Z,102645.70
2018-09-02T00:57:34.601Z,102650.00
2018-09-02T00:57:46.392Z,102651.86
2018-09-02T00:57:58.224Z,102645.33
2018-09-02T00:58:09.999Z,102653.72
2018-09-02T00:58:21.814Z,102650.17
2018-09-02T00:58:33.588Z,102641.78
2018-09-02T00:58:45.363Z,102649.62
2018-09-02T00:58:57.202Z,102646.63
2018-09-02T00:59:08.969Z,102651.86
2018-09-02T00:59:20.821Z,102647.00
2018-09-02T00:59:32.590Z,102647.37
2018-09-02T00:59:44.390Z,102638.23
2018-09-02T00:59:56.187Z,102642.87
2018-09-02T01:00:07.975Z,102650.00
2018-09-02T01:00:19.768Z,102647.75
2018-09-02T01:00:31.572Z,102645.14
2018-09-02T01:00:43.322Z,102650.92
2018-09-02T01:00:55.166Z,102644.39
2018-09-02T01:01:06.940Z,102641.56
2018-09-02T01:01:18.713Z,102650.92
2018-09-02T01:01:30.498Z,102651.67
2018-09-02T01:01:42.372Z,102650.92
2018-09-02T01:01:54.118Z,102641.41
2018-09-02T01:02:05.924Z,102650.71
2018-09-02T01:02:17.691Z,102647.54
2018-09-02T01:02:29.504Z,102651.67
2018-09-02T01:02:41.280Z,102653.70
2018-09-02T01:02:53.071Z,102649.41
2018-09-02T01:03:04.865Z,102649.06
2018-09-02T01:03:16.616Z,102650.71
2018-09-02T01:03:28.393Z,102649.06
2018-09-02T01:03:40.161Z,102650.71
2018-09-02T01:03:51.921Z,102653.54
2018-09-02T01:04:03.686Z,102651.67
2018-09-02T01:04:15.654Z,102652.23
2018-09-02T01:04:27.420Z,102651.67
2018-09-02T01:04:39.192Z,102652.98
2018-09-02T01:04:50.998Z,102652.02
2018-09-02T01:05:02.809Z,102658.21
2018-09-02T01:05:14.612Z,102656.91
2018-09-02T01:05:26.461Z,102655.59
2018-09-02T01:05:38.303Z,102650.37
2018-09-02T01:05:50.973Z,102655.59
2018-09-02T01:06:02.730Z,102654.29
2018-09-02T01:06:14.491Z,102650.71
2018-09-02T01:06:26.397Z,102652.02
2018-09-02T01:06:38.203Z,102650.71
2018-09-02T01:06:49.988Z,102655.94
2018-09-02T01:07:02.123Z,102652.39
2018-09-02T01:07:13.937Z,102657.25
2018-09-02T01:07:25.719Z,102651.67
2018-09-02T01:07:37.462Z,102652.61
2018-09-02T01:07:49.230Z,102653.32
2018-09-02T01:08:01.028Z,102655.22
2018-09-02T01:08:12.790Z,102652.02
2018-09-02T01:08:24.551Z,102653.91
2018-09-02T01:08:36.317Z,102650.37
2018-09-02T01:08:48.128Z,102652.02
2018-09-02T01:08:59.936Z,102650.00
2018-09-02T01:09:11.701Z,102658.21
2018-09-02T01:09:23.452Z,102655.22
2018-09-02T01:09:35.228Z,102650.71
2018-09-02T01:09:46.999Z,102650.00
2018-09-02T01:09:58.780Z,102650.37
2018-09-02T01:10:10.627Z,102655.22
2018-09-02T01:10:22.409Z,102659.14
2018-09-02T01:10:34.213Z,102651.67
2018-09-02T01:10:46.554Z,102652.02
2018-09-02T01:10:58.357Z,102657.84
2018-09-02T01:11:10.146Z,102659.52
2018-09-02T01:11:22.004Z,102653.32
2018-09-02T01:11:33.736Z,102657.25
2018-09-02T01:11:45.508Z,102653.32
2018-09-02T01:11:57.311Z,102652.98
2018-09-02T01:12:09.112Z,102654.63
2018-09-02T01:12:20.871Z,102655.76
2018-09-02T01:12:32.636Z,102655.01
2018-09-02T01:12:44.415Z,102659.86
2018-09-02T01:12:56.183Z,102654.08
2018-09-02T01:13:07.963Z,102657.63
2018-09-02T01:13:19.803Z,102661.92
2018-09-02T01:13:31.579Z,102656.69
2018-09-02T01:13:43.479Z,102655.01
2018-09-02T01:13:55.234Z,102657.63
2018-09-02T01:14:07.277Z,102655.01
2018-09-02T01:14:19.116Z,102658.75
2018-09-02T01:14:30.898Z,102658.00
2018-09-02T01:14:42.667Z,102652.77
2018-09-02T01:14:54.436Z,102651.46
2018-09-02T01:15:06.206Z,102657.25
2018-09-02T01:15:17.966Z,102658.55
2018-09-02T01:15:29.739Z,102657.63
2018-09-02T01:15:41.510Z,102655.01
2018-09-02T01:15:53.331Z,102658.92
2018-09-02T01:16:05.183Z,102656.69
2018-09-02T01:16:16.976Z,102654.08
2018-09-02T01:16:28.719Z,102654.63
2018-09-02T01:16:40.502Z,102656.91
2018-09-02T01:16:52.444Z,102654.63
2018-09-02T01:17:04.223Z,102655.94
2018-09-02T01:17:16.034Z,102657.25
2018-09-02T01:17:27.851Z,102656.91
2018-09-02T01:17:39.688Z,102657.25
2018-09-02T01:17:51.464Z,102654.63
2018-09-02T01:18:03.230Z,102654.63
2018-09-02T01:18:15.025Z,102653.32
2018-09-02T01:18:26.787Z,102653.70
2018-09-02T01:18:38.584Z,102654.29
2018-09-02T01:18:50.403Z,102654.29
2018-09-02T01:19:02.511Z,102657.25
2018-09-02T01:19:14.334Z,102659.52
2018-09-02T01:19:26.105Z,102655.94
2018-09-02T01:19:37.951Z,102656.31
2018-09-02T01:19:49.761Z,102652.02
2018-09-02T01:20:01.680Z,102656.91
2018-09-02T01:20:13.461Z,102658.21
2018-09-02T01:20:25.263Z,102655.94
2018-09-02T01:20:37.079Z,102652.77
2018-09-02T01:20:48.892Z,102654.08
2018-09-02T01:21:00.671Z,102655.01
2018-09-02T01:21:12.442Z,102657.25
2018-09-02T01:21:24.382Z,102655.01
2018-09-02T01:21:36.174Z,102656.91
2018-09-02T01:21:47.915Z,102652.39
2018-09-02T01:21:59.711Z,102656.91
2018-09-02T01:22:12.052Z,102658.92
2018-09-02T01:22:23.844Z,102658.55
2018-09-02T01:22:35.630Z,102656.31
2018-09-02T01:22:47.404Z,102655.76
2018-09-02T01:22:59.203Z,102655.01
2018-09-02T01:23:11.004Z,102658.92
2018-09-02T01:23:22.766Z,102658.92
2018-09-02T01:23:34.603Z,102658.92
2018-09-02T01:23:46.558Z,102656.31
2018-09-02T01:23:58.457Z,102661.92
2018-09-02T01:24:10.248Z,102654.45
2018-09-02T01:24:22.065Z,102658.92
2018-09-02T01:24:33.848Z,102658.92
2018-09-02T01:24:45.643Z,102660.61
2018-09-02T01:24:57.421Z,102662.84
2018-09-02T01:25:09.214Z,102660.23
2018-09-02T01:25:21.075Z,102652.98
2018-09-02T01:25:32.926Z,102661.16
2018-09-02T01:25:44.730Z,102660.23
2018-09-02T01:25:56.499Z,102656.31
2018-09-02T01:26:08.491Z,102660.83
2018-09-02T01:26:20.248Z,102654.63
2018-09-02T01:26:31.997Z,102655.22
2018-09-02T01:26:43.754Z,102653.91
2018-09-02T01:26:55.565Z,102655.94
2018-09-02T01:27:07.383Z,102653.32
2018-09-02T01:27:19.175Z,102658.55
2018-09-02T01:27:30.998Z,102655.01
2018-09-02T01:27:42.776Z,102658.55
2018-09-02T01:27:54.577Z,102655.38
2018-09-02T01:28:06.326Z,102649.78
2018-09-02T01:28:18.111Z,102654.29
2018-09-02T01:28:29.912Z,102655.59
2018-09-02T01:28:41.792Z,102654.63
2018-09-02T01:28:53.595Z,102657.63
2018-09-02T01:29:05.407Z,102654.63
2018-09-02T01:29:17.187Z,102655.38
2018-09-02T01:29:29.014Z,102653.32
2018-09-02T01:29:40.827Z,102651.46
2018-09-02T01:29:52.649Z,102653.70
2018-09-02T01:30:04.416Z,102656.69
2018-09-02T01:30:16.165Z,102656.31
2018-09-02T01:30:27.970Z,102654.63
2018-09-02T01:30:39.824Z,102648.47
2018-09-02T01:30:51.647Z,102655.59
2018-09-02T01:31:03.414Z,102655.76
2018-09-02T01:31:15.176Z,102649.22
2018-09-02T01:31:26.982Z,102654.45
2018-09-02T01:31:38.857Z,102649.59
2018-09-02T01:31:50.663Z,102651.84
2018-09-02T01:32:02.463Z,102654.45
2018-09-02T01:32:14.895Z,102655.01
2018-09-02T01:32:26.685Z,102655.38
2018-09-02T01:32:38.456Z,102656.31
2018-09-02T01:32:50.221Z,102655.01
2018-09-02T01:33:02.001Z,102652.77
2018-09-02T01:33:13.810Z,102656.31
2018-09-02T01:33:25.581Z,102657.25
2018-09-02T01:33:37.370Z,102651.46
2018-09-02T01:33:49.177Z,102653.32
2018-09-02T01:34:00.965Z,102648.47
2018-09-02T01:34:13.190Z,102657.63
2018-09-02T01:34:24.974Z,102652.77
2018-09-02T01:34:36.746Z,102655.01
2018-09-02T01:34:48.564Z,102651.84
2018-09-02T01:35:00.313Z,102656.69
2018-09-02T01:35:18.225Z,102648.84
2018-09-02T01:35:33.962Z,102655.01
2018-09-02T01:35:45.730Z,102653.14
2018-09-02T01:35:57.491Z,102655.94
2018-09-02T01:36:09.325Z,102653.70
2018-09-02T01:36:21.100Z,102656.31
2018-09-02T01:36:32.886Z,102649.78
2018-09-02T01:36:44.710Z,102655.94
2018-09-02T01:36:56.537Z,102658.55
2018-09-02T01:37:08.521Z,102655.01
2018-09-02T01:37:20.348Z,102658.38
2018-09-02T01:37:32.180Z,102657.63
2018-09-02T01:37:43.934Z,102650.53
2018-09-02T01:37:55.729Z,102654.45
2018-09-02T01:38:07.521Z,102658.00
2018-09-02T01:38:19.295Z,102657.06
2018-09-02T01:38:31.100Z,102652.77
2018-09-02T01:38:42.879Z,102652.59
2018-09-02T01:38:54.681Z,102654.45
2018-09-02T01:39:06.462Z,102653.52
2018-09-02T01:39:18.238Z,102654.45
2018-09-02T01:39:29.994Z,102650.53
2018-09-02T01:39:41.773Z,102654.45
2018-09-02T01:39:53.590Z,102654.83
2018-09-02T01:40:05.341Z,102652.22
2018-09-02T01:40:17.188Z,102652.59
2018-09-02T01:40:29.024Z,102654.45
2018-09-02T01:40:40.807Z,102651.66
2018-09-02T01:40:52.573Z,102657.81
2018-09-02T01:41:04.338Z,102649.59
2018-09-02T01:41:16.092Z,102651.28
2018-09-02T01:41:28.002Z,102651.28
2018-09-02T01:41:39.780Z,102648.29
2018-09-02T01:41:51.543Z,102649.97
2018-09-02T01:42:03.355Z,102646.05
2018-09-02T01:42:15.122Z,102647.36
2018-09-02T01:42:26.921Z,102647.73
2018-09-02T01:42:38.687Z,102652.59
2018-09-02T01:42:50.722Z,102646.43
2018-09-02T01:43:02.690Z,102650.35
2018-09-02T01:43:14.459Z,102649.59
2018-09-02T01:43:26.314Z,102647.73
2018-09-02T01:43:38.099Z,102646.80
2018-09-02T01:43:49.902Z,102645.68
2018-09-02T01:44:01.678Z,102649.59
2018-09-02T01:44:13.468Z,102649.97
2018-09-02T01:44:25.369Z,102644.56
2018-09-02T01:44:37.140Z,102645.12
2018-09-02T01:44:48.891Z,102648.11
2018-09-02T01:45:00.667Z,102643.26
2018-09-02T01:45:12.458Z,102645.12
2018-09-02T01:45:24.255Z,102650.35
2018-09-02T01:45:36.019Z,102649.04
2018-09-02T01:45:59.635Z,102646.05
2018-09-02T01:46:11.790Z,102646.43
2018-09-02T01:46:23.624Z,102650.91
2018-09-02T01:46:35.412Z,102642.51
2018-09-02T01:46:47.165Z,102646.43
2018-09-02T01:46:58.936Z,102647.73
2018-09-02T01:47:10.723Z,102649.97
2018-09-02T01:47:22.494Z,102651.66
2018-09-02T01:47:34.298Z,102651.66
2018-09-02T01:47:46.094Z,102646.43
2018-09-02T01:47:57.885Z,102648.11
2018-09-02T01:48:09.715Z,102649.42
2018-09-02T01:48:21.484Z,102649.59
2018-09-02T01:48:33.243Z,102647.36
2018-09-02T01:48:45.020Z,102646.80
2018-09-02T01:48:56.868Z,102646.43
2018-09-02T01:49:08.634Z,102644.94
2018-09-02T01:49:20.472Z,102645.50
2018-09-02T01:49:32.224Z,102644.94
2018-09-02T01:49:44.001Z,102646.43
2018-09-02T01:49:55.791Z,102648.66
2018-09-02T01:50:07.563Z,102650.35
2018-09-02T01:50:19.387Z,102651.66
2018-09-02T01:50:31.194Z,102651.28
2018-09-02T01:50:42.980Z,102646.43
2018-09-02T01:50:54.774Z,102646.80
2018-09-02T01:51:06.701Z,102649.04
2018-09-02T01:51:18.495Z,102645.12
2018-09-02T01:51:30.289Z,102648.66
2018-09-02T01:51:42.105Z,102648.29
2018-09-02T01:51:53.878Z,102646.80
2018-09-02T01:52:05.699Z,102646.98
2018-09-02T01:52:17.528Z,102646.80
2018-09-02T01:52:29.350Z,102645.88
2018-09-02T01:52:41.196Z,102649.97
2018-09-02T01:52:53.033Z,102649.42
2018-09-02T01:53:04.814Z,102649.97
2018-09-02T01:53:16.630Z,102648.66
2018-09-02T01:53:28.397Z,102649.97
2018-09-02T01:53:40.214Z,102646.43
2018-09-02T01:53:52.009Z,102648.11
2018-09-02T01:54:03.876Z,102652.97
2018-09-02T01:54:15.672Z,102651.66
2018-09-02T01:54:27.442Z,102652.97
2018-09-02T01:54:39.246Z,102649.80
2018-09-02T01:54:51.080Z,102648.11
2018-09-02T01:55:02.988Z,102645.88
2018-09-02T01:55:14.779Z,102644.94
2018-09-02T01:55:26.549Z,102648.11
2018-09-02T01:55:38.354Z,102644.19
2018-09-02T01:55:50.130Z,102652.41
2018-09-02T01:56:01.953Z,102643.63
2018-09-02T01:56:13.734Z,102643.26
2018-09-02T01:56:25.517Z,102646.43
2018-09-02T01:56:37.297Z,102646.05
2018-09-02T01:56:49.092Z,102650.53
2018-09-02T01:57:00.925Z,102647.73
2018-09-02T01:57:12.688Z,102646.43
2018-09-02T01:57:24.487Z,102652.59
2018-09-02T01:57:36.291Z,102650.35
2018-09-02T01:57:48.294Z,102650.35
2018-09-02T01:58:00.068Z,102649.97
2018-09-02T01:58:11.844Z,102651.66
2018-09-02T01:58:23.620Z,102650.35
2018-09-02T01:58:35.542Z,102648.66
2018-09-02T01:58:47.311Z,102651.28
2018-09-02T01:58:59.105Z,102648.29
2018-09-02T01:59:10.967Z,102651.28
2018-09-02T01:59:22.853Z,102650.73
2018-09-02T01:59:34.606Z,102645.50
2018-09-02T01:59:46.355Z,102646.80
2018-09-02T01:59:58.100Z,102648.48
2018-09-02T02:00:09.916Z,102641.02
2018-09-02T02:00:21.775Z,102647.36
2018-09-02T02:00:33.547Z,102647.18
2018-09-02T02:00:45.313Z,102646.80
2018-09-02T02:00:57.082Z,102641.95
2018-09-02T02:01:08.839Z,102650.73
2018-09-02T02:01:20.629Z,102647.55
2018-09-02T02:01:32.399Z,102648.86
2018-09-02T02:01:44.159Z,102652.41
2018-09-02T02:01:56.061Z,102652.03
2018-09-02T02:02:07.813Z,102648.86
2018-09-02T02:02:19.563Z,102649.80
2018-09-02T02:02:31.364Z,102647.55
2018-09-02T02:02:43.124Z,102650.17
2018-09-02T02:02:54.870Z,102655.02
2018-09-02T02:03:06.618Z,102652.78
2018-09-02T02:03:18.388Z,102652.78
2018-09-02T02:03:30.160Z,102650.17
2018-09-02T02:03:41.934Z,102653.71
2018-09-02T02:03:53.765Z,102648.86
2018-09-02T02:04:05.525Z,102658.02
2018-09-02T02:04:17.303Z,102652.97
2018-09-02T02:04:33.326Z,102658.56
2018-09-02T02:04:45.103Z,102657.26
2018-09-02T02:04:56.858Z,102653.34
2018-09-02T02:05:08.606Z,102652.41
2018-09-02T02:05:20.362Z,102656.33
2018-09-02T02:05:32.132Z,102655.95
2018-09-02T02:05:43.907Z,102659.12
2018-09-02T02:05:55.697Z,102653.34
2018-09-02T02:06:07.462Z,102659.50
2018-09-02T02:06:19.278Z,102655.02
2018-09-02T02:06:31.053Z,102656.88
2018-09-02T02:06:42.818Z,102652.41
2018-09-02T02:06:54.575Z,102659.50
2018-09-02T02:07:06.344Z,102653.71
2018-09-02T02:07:18.114Z,102654.64
2018-09-02T02:07:29.886Z,102653.34
2018-09-02T02:07:41.701Z,102655.02
2018-09-02T02:07:53.414Z,102656.70
2018-09-02T02:08:05.197Z,102658.39
2018-09-02T02:08:16.952Z,102653.71
2018-09-02T02:08:28.708Z,102658.02
2018-09-02T02:08:40.469Z,102653.71
2018-09-02T02:08:52.219Z,102653.34
2018-09-02T02:09:04.588Z,102659.50
2018-09-02T02:09:16.359Z,102655.58
2018-09-02T02:09:28.124Z,102651.48
2018-09-02T02:09:39.882Z,102653.71
2018-09-02T02:09:51.636Z,102653.34
2018-09-02T02:10:03.415Z,102651.10
2018-09-02T02:10:15.174Z,102651.85
2018-09-02T02:10:26.952Z,102657.64
2018-09-02T02:10:39.150Z,102650.17
2018-09-02T02:10:50.948Z,102650.55
2018-09-02T02:11:02.723Z,102651.85
2018-09-02T02:11:14.481Z,102654.09
2018-09-02T02:11:26.234Z,102651.85
2018-09-02T02:11:38.053Z,102657.64
2018-09-02T02:11:49.817Z,102658.39
2018-09-02T02:12:01.564Z,102657.08
2018-09-02T02:12:13.327Z,102661.93
2018-09-02T02:12:25.084Z,102655.39
2018-09-02T02:12:36.856Z,102653.16
2018-09-02T02:12:49.631Z,102655.22
2018-09-02T02:13:01.408Z,102656.70
2018-09-02T02:13:13.182Z,102655.77
2018-09-02T02:13:24.947Z,102657.64
2018-09-02T02:13:36.717Z,102655.39
2018-09-02T02:13:48.478Z,102656.52
2018-09-02T02:14:00.252Z,102658.02
2018-09-02T02:14:12.023Z,102660.44
2018-09-02T02:14:23.792Z,102663.61
2018-09-02T02:14:35.581Z,102658.02
2018-09-02T02:14:47.348Z,102655.59
2018-09-02T02:14:59.152Z,102658.20
2018-09-02T02:15:10.899Z,102657.08